Time;durP1;ratioP1;P1;durP2;ratioP2;P2;SDS_P1;SDS_P2;PMS_P1;PMS_P2;Temp;Humidity;BMP_temperature;BMP_pressure;BME280_temperature;BME280_humidity;BME280_pressure;Samples;Min_cycle;Max_cycle;Signal;HPM_P1;HPM_P2
2023/06/29 00:00:16;;;;;;;1.70;0.90;;;19.80;1.00;;;;;;5138650;27;20431;-61
2023/06/29 00:02:44;;;;;;;1.00;0.80;;;19.80;1.00;;;;;;5138319;27;20433;-62
2023/06/29 00:05:12;;;;;;;1.30;0.90;;;19.70;1.00;;;;;;5137523;27;20890;-62
2023/06/29 00:07:39;;;;;;;1.40;0.90;;;19.70;1.00;;;;;;5137034;27;20484;-61
2023/06/29 00:10:08;;;;;;;1.30;0.90;;;19.70;41.60;;;;;;5136899;27;20422;-62
2023/06/29 00:12:35;;;;;;;2.10;1.00;;;19.70;57.70;;;;;;5137791;27;20466;-62
2023/06/29 00:15:02;;;;;;;1.13;0.90;;;19.70;79.30;;;;;;5137904;27;20508;-62
2023/06/29 00:17:29;;;;;;;3.05;1.00;;;19.80;99.90;;;;;;5137326;27;20442;-62
2023/06/29 00:19:56;;;;;;;1.20;0.90;;;19.80;9.10;;;;;;5136417;27;20664;-61
2023/06/29 00:22:25;;;;;;;1.30;0.90;;;19.80;18.20;;;;;;5136501;27;20427;-62
2023/06/29 00:24:55;;;;;;;2.10;0.80;;;19.90;16.10;;;;;;5137743;27;20423;-62
2023/06/29 00:27:22;;;;;;;1.10;0.90;;;20.00;1.00;;;;;;5137246;27;20432;-61
2023/06/29 00:29:50;;;;;;;2.50;0.88;;;19.90;1.00;;;;;;5137143;27;20479;-62
2023/06/29 00:32:16;;;;;;;1.10;0.90;;;19.80;1.00;;;;;;5137783;27;20483;-62
2023/06/29 00:34:44;;;;;;;1.10;1.00;;;19.60;99.90;;;;;;5137835;27;20410;-63
2023/06/29 00:37:11;;;;;;;1.00;0.80;;;19.60;99.90;;;;;;5136211;27;20507;-63
2023/06/29 00:39:40;;;;;;;1.30;0.90;;;19.50;99.90;;;;;;5137362;27;20419;-62
2023/06/29 00:42:07;;;;;;;1.40;1.00;;;19.50;99.90;;;;;;5136860;27;20517;-63
2023/06/29 00:44:34;;;;;;;1.50;0.90;;;19.40;99.90;;;;;;5136785;27;20422;-61
2023/06/29 00:47:02;;;;;;;1.40;0.90;;;19.40;99.90;;;;;;5136672;27;20495;-61
2023/06/29 00:49:29;;;;;;;1.10;0.80;;;19.30;1.00;;;;;;5136555;27;20427;-62
2023/06/29 00:51:56;;;;;;;1.20;0.90;;;19.30;1.00;;;;;;5137758;27;20414;-61
2023/06/29 00:54:23;;;;;;;1.20;0.90;;;19.30;1.00;;;;;;5137221;27;20707;-62
2023/06/29 00:56:51;;;;;;;1.10;0.80;;;19.40;1.00;;;;;;5137340;27;20469;-61
2023/06/29 00:59:18;;;;;;;1.35;0.90;;;19.40;1.00;;;;;;5137096;27;20422;-60
2023/06/29 01:01:46;;;;;;;1.30;0.93;;;19.40;1.00;;;;;;5136982;27;20406;-61
2023/06/29 01:04:17;;;;;;;2.13;1.00;;;19.30;1.00;;;;;;5137105;27;20421;-61
2023/06/29 01:06:51;;;;;;;1.00;0.82;;;19.30;1.00;;;;;;5137183;27;20452;-62
2023/06/29 01:09:19;;;;;;;1.85;0.90;;;19.20;1.00;;;;;;5136075;27;20449;-63
2023/06/29 01:11:46;;;;;;;1.05;0.90;;;19.20;1.00;;;;;;5136784;27;20906;-61
2023/06/29 01:14:15;;;;;;;1.05;0.90;;;19.10;1.00;;;;;;5137037;27;20418;-61
2023/06/29 01:16:43;;;;;;;1.10;0.90;;;19.10;1.00;;;;;;5137189;27;20414;-61
2023/06/29 01:19:18;;;;;;;1.77;0.90;;;19.10;1.00;;;;;;5135791;27;20467;-61
2023/06/29 01:21:54;;;;;;;1.80;0.90;;;19.10;1.00;;;;;;5137110;27;20422;-61
2023/06/29 01:24:25;;;;;;;1.10;0.90;;;19.10;1.00;;;;;;5136686;27;20426;-62
2023/06/29 01:26:54;;;;;;;1.83;1.00;;;19.10;1.00;;;;;;5136883;27;20422;-61
2023/06/29 01:29:24;;;;;;;1.10;0.90;;;19.10;11.10;;;;;;5135064;27;20434;-61
2023/06/29 01:31:53;;;;;;;1.83;0.97;;;19.10;1.00;;;;;;5136193;27;20872;-63
2023/06/29 01:34:21;;;;;;;1.30;0.90;;;19.10;1.00;;;;;;5136303;27;20422;-61
2023/06/29 01:36:51;;;;;;;2.40;0.90;;;19.10;93.50;;;;;;5136819;27;20466;-61
2023/06/29 01:39:24;;;;;;;1.20;0.90;;;19.20;1.00;;;;;;5136591;27;20414;-62
2023/06/29 01:41:54;;;;;;;1.10;0.80;;;19.10;1.00;;;;;;5136434;27;20478;-62
2023/06/29 01:44:21;;;;;;;1.88;1.00;;;19.10;1.00;;;;;;5136430;27;20429;-62
2023/06/29 01:46:49;;;;;;;1.10;0.80;;;19.10;1.00;;;;;;5135573;27;20515;-61
2023/06/29 01:49:16;;;;;;;1.50;0.90;;;19.00;1.00;;;;;;5135327;27;20479;-61
2023/06/29 01:51:43;;;;;;;1.30;0.90;;;18.90;99.90;;;;;;5136161;27;20423;-63
2023/06/29 01:54:10;;;;;;;2.97;0.98;;;18.80;99.90;;;;;;5136134;27;20710;-62
2023/06/29 01:56:37;;;;;;;1.33;1.00;;;18.80;99.90;;;;;;5136287;27;20475;-62
2023/06/29 01:59:05;;;;;;;1.30;0.90;;;18.80;1.00;;;;;;5136163;27;20834;-62
2023/06/29 02:01:32;;;;;;;2.50;0.90;;;18.80;1.00;;;;;;5135899;27;20414;-63
2023/06/29 02:03:59;;;;;;;2.30;1.10;;;18.80;1.00;;;;;;5135541;27;20503;-61
2023/06/29 02:06:26;;;;;;;1.45;0.90;;;18.70;1.00;;;;;;5135563;27;20899;-61
2023/06/29 02:08:53;;;;;;;2.00;0.90;;;18.60;1.00;;;;;;5134911;27;20509;-64
2023/06/29 02:11:20;;;;;;;1.20;0.90;;;18.60;1.00;;;;;;5135554;28;20790;-61
2023/06/29 02:13:48;;;;;;;1.50;1.00;;;18.60;1.00;;;;;;5134738;27;20414;-61
2023/06/29 02:16:16;;;;;;;1.92;1.00;;;18.60;1.00;;;;;;5135088;28;20530;-63
2023/06/29 02:18:43;;;;;;;1.42;0.90;;;18.60;1.00;;;;;;5135510;28;20838;-60
2023/06/29 02:21:10;;;;;;;1.90;1.00;;;18.60;1.00;;;;;;5135105;28;20426;-62
2023/06/29 02:23:37;;;;;;;1.20;0.90;;;18.60;1.00;;;;;;5136189;28;20479;-62
2023/06/29 02:26:04;;;;;;;1.50;1.00;;;18.50;1.00;;;;;;5135964;28;20426;-60
2023/06/29 02:28:31;;;;;;;1.65;0.95;;;18.50;1.00;;;;;;5135164;28;20719;-61
2023/06/29 02:30:58;;;;;;;1.10;0.90;;;18.50;1.00;;;;;;5135426;28;20821;-62
2023/06/29 02:33:26;;;;;;;1.60;1.08;;;18.40;61.60;;;;;;5136012;28;20787;-61
2023/06/29 02:35:53;;;;;;;1.00;0.90;;;18.40;99.90;;;;;;5135092;28;20865;-62
2023/06/29 02:38:20;;;;;;;1.30;1.10;;;18.30;99.90;;;;;;5135535;28;20457;-62
2023/06/29 02:40:47;;;;;;;1.00;0.90;;;18.30;99.90;;;;;;5135425;28;20418;-61
2023/06/29 02:43:15;;;;;;;1.70;1.00;;;18.30;99.90;;;;;;5135267;28;20465;-62
2023/06/29 02:45:42;;;;;;;1.10;0.90;;;18.30;1.00;;;;;;5135070;28;20414;-61
2023/06/29 02:48:09;;;;;;;1.10;1.00;;;18.40;99.90;;;;;;5134963;28;20445;-62
2023/06/29 02:50:37;;;;;;;2.00;0.95;;;18.40;99.90;;;;;;5135209;28;20479;-62
2023/06/29 02:53:04;;;;;;;1.40;1.00;;;18.40;99.90;;;;;;5135473;28;20426;-61
2023/06/29 02:55:32;;;;;;;2.00;1.00;;;18.30;1.00;;;;;;5134935;28;20472;-60
2023/06/29 02:57:59;;;;;;;1.20;0.90;;;18.30;1.00;;;;;;5135533;27;20412;-61
2023/06/29 03:00:26;;;;;;;1.10;1.00;;;18.20;1.00;;;;;;5138299;27;20498;-60
2023/06/29 03:02:53;;;;;;;2.00;1.17;;;18.30;1.00;;;;;;5139145;27;20733;-62
2023/06/29 03:05:20;;;;;;;3.10;1.07;;;18.30;1.00;;;;;;5139411;27;20418;-61
2023/06/29 03:07:48;;;;;;;1.50;0.90;;;18.30;99.90;;;;;;5138690;27;20414;-61
2023/06/29 03:10:15;;;;;;;2.00;1.08;;;18.40;1.00;;;;;;5138602;27;20426;-60
2023/06/29 03:12:42;;;;;;;2.00;1.00;;;18.40;99.90;;;;;;5138316;27;20457;-62
2023/06/29 03:15:10;;;;;;;1.40;0.98;;;18.40;99.90;;;;;;5139084;27;20462;-62
2023/06/29 03:17:37;;;;;;;1.20;0.90;;;18.30;99.90;;;;;;5139042;27;20490;-62
2023/06/29 03:20:06;;;;;;;1.80;1.00;;;18.20;99.90;;;;;;5137784;27;20468;-62
2023/06/29 03:22:33;;;;;;;1.45;1.00;;;18.10;1.00;;;;;;5138765;27;20522;-62
2023/06/29 03:25:01;;;;;;;2.10;1.10;;;18.00;1.00;;;;;;5138431;27;20718;-61
2023/06/29 03:27:28;;;;;;;1.38;1.10;;;17.90;99.90;;;;;;5138888;27;20428;-62
2023/06/29 03:29:55;;;;;;;1.80;1.10;;;17.80;99.90;;;;;;5138283;27;20430;-60
2023/06/29 03:32:22;;;;;;;1.40;1.00;;;17.90;99.90;;;;;;5137722;27;20475;-61
2023/06/29 03:34:49;;;;;;;1.10;0.90;;;17.90;99.90;;;;;;5137692;27;20911;-61
2023/06/29 03:37:16;;;;;;;1.80;1.00;;;18.00;99.90;;;;;;5138104;27;20773;-62
2023/06/29 03:39:43;;;;;;;2.00;1.00;;;18.10;97.20;;;;;;5138662;27;20486;-62
2023/06/29 03:42:11;;;;;;;1.20;1.00;;;18.10;1.00;;;;;;5137510;27;20471;-61
2023/06/29 03:44:39;;;;;;;1.63;1.00;;;18.20;1.00;;;;;;5137285;27;20481;-61
2023/06/29 03:47:06;;;;;;;2.50;1.00;;;18.20;1.00;;;;;;5137412;27;20426;-61
2023/06/29 03:49:33;;;;;;;1.98;1.20;;;18.20;1.00;;;;;;5137319;27;20434;-61
2023/06/29 03:52:00;;;;;;;2.53;1.10;;;18.20;99.90;;;;;;5138481;27;20695;-61
2023/06/29 03:54:27;;;;;;;1.60;1.00;;;18.20;1.00;;;;;;5137928;27;20426;-60
2023/06/29 03:56:54;;;;;;;1.38;1.00;;;18.00;1.00;;;;;;5137653;27;20419;-61
2023/06/29 03:59:23;;;;;;;1.98;1.05;;;18.00;93.50;;;;;;5136848;27;20422;-61
2023/06/29 04:01:50;;;;;;;1.20;1.00;;;18.00;1.00;;;;;;5137054;27;20491;-62
2023/06/29 04:04:17;;;;;;;2.55;1.00;;;18.00;1.00;;;;;;5135486;27;20422;-60
2023/06/29 04:06:44;;;;;;;1.55;1.00;;;18.00;1.00;;;;;;5135214;27;20462;-60
2023/06/29 04:09:12;;;;;;;1.30;1.00;;;18.00;1.00;;;;;;5134435;27;20430;-60
2023/06/29 04:11:39;;;;;;;1.20;1.10;;;18.00;99.90;;;;;;5132321;27;20422;-60
2023/06/29 04:14:06;;;;;;;1.70;1.00;;;18.00;22.20;;;;;;5134768;27;20732;-61
2023/06/29 04:16:34;;;;;;;2.20;1.10;;;17.90;99.90;;;;;;5135070;27;20769;-62
2023/06/29 04:19:01;;;;;;;2.20;1.10;;;17.90;99.90;;;;;;5135976;27;20476;-61
2023/06/29 04:21:28;;;;;;;1.30;1.10;;;17.80;1.00;;;;;;5135898;27;20495;-62
2023/06/29 04:23:55;;;;;;;1.80;1.10;;;17.90;1.00;;;;;;5136685;27;20768;-61
2023/06/29 04:26:22;;;;;;;1.80;1.20;;;17.90;1.00;;;;;;5136391;27;20464;-63
2023/06/29 04:28:50;;;;;;;1.48;0.90;;;17.90;99.90;;;;;;5137088;27;20518;-62
2023/06/29 04:31:17;;;;;;;2.10;1.10;;;17.90;99.90;;;;;;5137991;27;20471;-62
2023/06/29 04:33:45;;;;;;;1.98;1.10;;;17.90;99.90;;;;;;5136903;27;20918;-62
2023/06/29 04:36:13;;;;;;;1.80;1.30;;;17.90;47.20;;;;;;5137276;27;20426;-62
2023/06/29 04:38:40;;;;;;;1.40;1.10;;;18.00;1.00;;;;;;5135533;27;20517;-61
2023/06/29 04:41:09;;;;;;;1.60;1.15;;;18.00;1.00;;;;;;5132843;27;20418;-61
2023/06/29 04:43:36;;;;;;;1.60;1.10;;;18.10;1.00;;;;;;5133980;27;20418;-62
2023/06/29 04:46:03;;;;;;;1.90;1.10;;;18.10;1.00;;;;;;5134231;27;20697;-61
2023/06/29 04:48:36;;;;;;;1.40;1.10;;;18.10;99.90;;;;;;5133691;27;20462;-60
2023/06/29 04:51:05;;;;;;;2.00;1.00;;;18.10;99.90;;;;;;5133123;27;20797;-61
2023/06/29 04:53:33;;;;;;;1.30;1.05;;;18.10;99.90;;;;;;5131745;27;20425;-61
2023/06/29 04:56:01;;;;;;;1.20;1.00;;;18.10;99.90;;;;;;5133768;27;20503;-62
2023/06/29 04:58:28;;;;;;;3.60;1.00;;;18.10;1.00;;;;;;5134495;27;20706;-59
2023/06/29 05:00:55;;;;;;;1.65;1.00;;;18.00;1.00;;;;;;5133829;27;20414;-63
2023/06/29 05:03:22;;;;;;;1.35;1.10;;;18.00;99.90;;;;;;5133106;27;20429;-61
2023/06/29 05:05:49;;;;;;;1.50;1.00;;;18.10;1.00;;;;;;5133848;27;20738;-62
2023/06/29 05:08:17;;;;;;;1.40;1.00;;;18.20;1.00;;;;;;5130865;27;20478;-62
2023/06/29 05:10:45;;;;;;;1.50;1.00;;;18.30;99.90;;;;;;5133660;27;20423;-61
2023/06/29 05:13:12;;;;;;;2.67;1.17;;;18.30;97.30;;;;;;5132806;27;20415;-62
2023/06/29 05:15:39;;;;;;;2.90;1.00;;;18.40;99.90;;;;;;5130323;27;20861;-62
2023/06/29 05:18:06;;;;;;;1.30;1.00;;;18.50;81.80;;;;;;5131783;27;20458;-62
2023/06/29 05:20:33;;;;;;;1.63;1.10;;;18.60;1.00;;;;;;5130435;27;20798;-62
2023/06/29 05:23:00;;;;;;;1.60;1.10;;;18.70;1.00;;;;;;5133433;27;20475;-61
2023/06/29 05:25:28;;;;;;;1.30;1.10;;;18.70;1.00;;;;;;5131811;27;20518;-62
2023/06/29 05:27:56;;;;;;;2.53;1.20;;;18.70;1.00;;;;;;5133655;27;20414;-62
2023/06/29 05:30:23;;;;;;;2.10;1.20;;;18.70;1.00;;;;;;5132834;27;20779;-62
2023/06/29 05:32:50;;;;;;;1.70;1.10;;;18.80;99.90;;;;;;5133123;27;20733;-62
2023/06/29 05:35:17;;;;;;;3.05;1.05;;;18.90;99.90;;;;;;5134569;27;20802;-62
2023/06/29 05:37:44;;;;;;;1.35;1.08;;;18.90;99.90;;;;;;5134116;27;20479;-62
2023/06/29 05:40:12;;;;;;;2.20;1.00;;;18.90;1.00;;;;;;5134780;27;20503;-62
2023/06/29 05:42:40;;;;;;;1.30;1.00;;;18.90;1.00;;;;;;5134051;27;20422;-62
2023/06/29 05:45:08;;;;;;;2.00;1.00;;;19.00;1.00;;;;;;5134003;27;20426;-62
2023/06/29 05:47:35;;;;;;;1.50;1.00;;;19.00;1.00;;;;;;5133104;27;20716;-62
2023/06/29 05:50:03;;;;;;;2.50;1.00;;;19.00;1.00;;;;;;5131367;27;20821;-62
2023/06/29 05:52:30;;;;;;;1.20;1.00;;;19.00;1.00;;;;;;5131184;27;20485;-62
2023/06/29 05:54:57;;;;;;;1.53;1.10;;;19.10;1.00;;;;;;5131299;27;20850;-61
2023/06/29 05:57:24;;;;;;;1.80;1.20;;;19.10;1.00;;;;;;5132444;27;21051;-61
2023/06/29 05:59:52;;;;;;;2.58;1.20;;;19.20;1.00;;;;;;5131406;27;20700;-61
2023/06/29 06:02:19;;;;;;;2.83;1.50;;;19.20;1.00;;;;;;5132490;27;20486;-60
2023/06/29 06:04:46;;;;;;;1.40;1.15;;;19.20;1.00;;;;;;5132566;27;20760;-61
2023/06/29 06:07:15;;;;;;;2.20;1.10;;;19.30;1.00;;;;;;5133363;27;20422;-62
2023/06/29 06:09:42;;;;;;;1.80;1.20;;;19.40;1.00;;;;;;5131964;27;20431;-60
2023/06/29 06:12:10;;;;;;;2.63;1.20;;;19.60;1.00;;;;;;5132111;28;20773;-61
2023/06/29 06:14:36;;;;;;;1.40;1.00;;;19.70;1.00;;;;;;5132253;28;20784;-61
2023/06/29 06:17:05;;;;;;;1.30;1.10;;;19.80;99.90;;;;;;5131457;28;20776;-60
2023/06/29 06:19:32;;;;;;;3.13;1.15;;;19.80;99.90;;;;;;5129662;28;20487;-62
2023/06/29 06:21:59;;;;;;;1.85;1.10;;;19.90;99.90;;;;;;5131519;28;20434;-59
2023/06/29 06:24:26;;;;;;;1.73;1.10;;;19.90;99.90;;;;;;5131068;28;20537;-58
2023/06/29 06:26:53;;;;;;;1.40;1.10;;;20.00;99.90;;;;;;5131693;28;20450;-55
2023/06/29 06:29:20;;;;;;;2.80;1.08;;;20.10;55.60;;;;;;5132078;28;20422;-58
2023/06/29 06:31:47;;;;;;;1.50;0.98;;;20.10;1.00;;;;;;5131446;28;20500;-56
2023/06/29 06:34:15;;;;;;;1.85;1.10;;;20.30;1.00;;;;;;5132779;27;20426;-59
2023/06/29 06:36:42;;;;;;;1.90;1.10;;;20.50;1.00;;;;;;5135610;27;20422;-60
2023/06/29 06:39:09;;;;;;;1.70;1.00;;;20.60;1.00;;;;;;5132964;27;20491;-59
2023/06/29 06:41:36;;;;;;;2.00;1.00;;;20.70;1.00;;;;;;5134147;27;20890;-60
2023/06/29 06:44:04;;;;;;;1.43;0.80;;;21.00;99.90;;;;;;5135727;27;21064;-59
2023/06/29 06:46:31;;;;;;;2.30;1.00;;;21.10;99.90;;;;;;5133414;27;20868;-59
2023/06/29 06:48:58;;;;;;;1.40;0.90;;;21.20;99.90;;;;;;5135976;27;20457;-59
2023/06/29 06:51:27;;;;;;;1.80;0.80;;;21.20;99.90;;;;;;5134213;27;20716;-58
2023/06/29 06:53:54;;;;;;;0.93;0.80;;;21.40;99.90;;;;;;5135095;27;20921;-58
2023/06/29 06:56:23;;;;;;;1.35;0.90;;;21.60;99.90;;;;;;5135453;27;20726;-60
2023/06/29 06:58:50;;;;;;;1.70;0.80;;;21.70;87.80;;;;;;5134215;27;20853;-60
2023/06/29 07:01:21;;;;;;;2.10;1.00;;;21.70;28.30;;;;;;5134360;27;20425;-61
2023/06/29 07:03:48;;;;;;;1.95;1.00;;;21.70;42.60;;;;;;5134164;27;20486;-61
2023/06/29 07:06:15;;;;;;;1.80;1.00;;;21.80;50.60;;;;;;5132278;27;20503;-62
2023/06/29 07:08:43;;;;;;;2.00;1.00;;;21.90;26.50;;;;;;5130661;27;20414;-61
2023/06/29 07:11:10;;;;;;;1.50;1.00;;;21.90;19.90;;;;;;5133711;27;20695;-61
2023/06/29 07:13:37;;;;;;;1.48;0.90;;;22.00;29.20;;;;;;5130205;27;20850;-61
2023/06/29 07:16:05;;;;;;;1.30;1.00;;;22.20;30.60;;;;;;5119949;27;20450;-61
2023/06/29 07:18:36;;;;;;;2.65;1.20;;;22.70;16.10;;;;;;5131970;27;20787;-60
2023/06/29 07:21:03;;;;;;;1.70;1.00;;;22.90;1.00;;;;;;5134286;27;20538;-60
2023/06/29 07:23:29;;;;;;;2.33;1.00;;;23.00;1.00;;;;;;5130781;27;20418;-59
2023/06/29 07:25:58;;;;;;;2.55;1.10;;;23.00;1.00;;;;;;5132543;27;20426;-60
2023/06/29 07:28:25;;;;;;;1.80;1.00;;;23.20;1.00;;;;;;5133540;27;20799;-61
2023/06/29 07:30:52;;;;;;;1.40;1.00;;;23.20;1.00;;;;;;5132123;27;20427;-61
2023/06/29 07:33:19;;;;;;;1.53;0.90;;;23.40;1.00;;;;;;5133192;27;20437;-59
2023/06/29 07:35:46;;;;;;;1.80;0.82;;;23.40;1.00;;;;;;5133047;27;20419;-60
2023/06/29 07:38:13;;;;;;;4.00;1.40;;;23.60;1.00;;;;;;5134318;27;20534;-58
2023/06/29 07:40:40;;;;;;;1.50;1.10;;;23.70;1.00;;;;;;5136524;27;20525;-58
2023/06/29 07:43:08;;;;;;;1.60;1.10;;;23.70;1.00;;;;;;5135518;27;20426;-65
2023/06/29 07:45:35;;;;;;;1.83;1.10;;;23.90;1.00;;;;;;5133448;27;20430;-66
2023/06/29 07:48:03;;;;;;;1.80;0.90;;;23.90;1.00;;;;;;5131029;27;20422;-61
2023/06/29 07:50:30;;;;;;;1.30;0.90;;;23.90;1.00;;;;;;5133530;27;20845;-61
2023/06/29 07:52:57;;;;;;;1.30;0.90;;;24.00;1.00;;;;;;5131645;27;20857;-61
2023/06/29 07:55:24;;;;;;;1.70;1.00;;;24.20;1.00;;;;;;5130767;27;20471;-61
2023/06/29 07:57:51;;;;;;;1.20;0.80;;;24.30;1.00;;;;;;5132059;27;20480;-62
2023/06/29 08:00:21;;;;;;;1.80;0.90;;;24.50;1.00;;;;;;5123881;27;20804;-60
2023/06/29 08:02:50;;;;;;;1.85;1.00;;;24.60;1.00;;;;;;5132487;27;20483;-59
2023/06/29 08:05:17;;;;;;;1.40;1.00;;;24.50;1.00;;;;;;5134444;27;20892;-61
2023/06/29 08:07:44;;;;;;;1.00;0.90;;;24.60;1.00;;;;;;5131808;27;20471;-61
2023/06/29 08:10:11;;;;;;;1.00;0.80;;;24.30;1.00;;;;;;5118989;27;20808;-60
2023/06/29 08:12:38;;;;;;;3.50;0.80;;;24.30;1.00;;;;;;5123188;27;20430;-60
2023/06/29 08:15:06;;;;;;;1.50;0.80;;;24.20;1.00;;;;;;5129866;27;20433;-61
2023/06/29 08:17:35;;;;;;;1.25;0.80;;;24.30;1.00;;;;;;5130322;27;20561;-60
2023/06/29 08:20:04;;;;;;;1.50;0.80;;;24.70;1.00;;;;;;5129816;27;20417;-60
2023/06/29 08:22:31;;;;;;;0.90;0.70;;;25.00;1.00;;;;;;5130176;27;20426;-60
2023/06/29 08:24:58;;;;;;;1.00;0.77;;;25.10;1.00;;;;;;5127689;27;20438;-60
2023/06/29 08:27:25;;;;;;;1.80;1.10;;;25.20;1.00;;;;;;5131017;27;20431;-60
2023/06/29 08:29:52;;;;;;;1.30;0.80;;;25.10;1.00;;;;;;5131987;27;20795;-60
2023/06/29 08:32:19;;;;;;;0.90;0.70;;;25.10;1.00;;;;;;5131983;27;20871;-60
2023/06/29 08:34:48;;;;;;;1.77;0.68;;;25.10;1.00;;;;;;5130262;27;20458;-60
2023/06/29 08:37:15;;;;;;;2.00;0.70;;;25.20;1.00;;;;;;5128510;27;20457;-60
2023/06/29 08:39:42;;;;;;;0.90;0.70;;;25.20;1.00;;;;;;5131958;27;20427;-60
2023/06/29 08:42:09;;;;;;;1.00;0.70;;;25.30;1.00;;;;;;5131010;27;20450;-60
2023/06/29 08:44:36;;;;;;;2.13;0.80;;;25.40;1.00;;;;;;5130904;27;21071;-62
2023/06/29 08:47:05;;;;;;;1.20;0.70;;;25.40;1.00;;;;;;5131105;27;20410;-59
2023/06/29 08:49:35;;;;;;;1.88;1.00;;;25.20;1.00;;;;;;5129643;27;20508;-61
2023/06/29 08:52:05;;;;;;;1.20;0.70;;;25.20;1.00;;;;;;5127825;27;20507;-60
2023/06/29 08:54:32;;;;;;;1.50;0.60;;;25.40;1.00;;;;;;5127125;27;20458;-61
2023/06/29 08:57:00;;;;;;;1.30;0.70;;;25.50;1.00;;;;;;5126344;27;20483;-60
2023/06/29 08:59:28;;;;;;;1.00;0.70;;;25.50;1.00;;;;;;5129454;27;20716;-60
2023/06/29 09:01:56;;;;;;;0.80;0.63;;;25.40;1.00;;;;;;5130295;27;20415;-60
2023/06/29 09:04:24;;;;;;;0.90;0.70;;;25.50;1.00;;;;;;5131139;27;20430;-59
2023/06/29 09:06:53;;;;;;;0.90;0.70;;;25.70;1.00;;;;;;5131229;27;20464;-59
2023/06/29 09:09:23;;;;;;;1.85;0.70;;;25.80;1.00;;;;;;5125212;27;20539;-60
2023/06/29 09:11:51;;;;;;;1.13;0.60;;;26.20;1.00;;;;;;5129818;27;20434;-60
2023/06/29 09:14:18;;;;;;;1.50;0.88;;;26.40;1.00;;;;;;5130105;27;20822;-56
2023/06/29 09:16:53;;;;;;;1.20;0.70;;;26.30;1.00;;;;;;5130601;27;20467;-58
2023/06/29 09:19:20;;;;;;;0.80;0.60;;;26.20;1.00;;;;;;5130561;27;20430;-58
2023/06/29 09:21:48;;;;;;;1.20;0.70;;;26.30;1.00;;;;;;5129778;27;20433;-60
2023/06/29 09:24:16;;;;;;;1.00;0.63;;;26.50;1.00;;;;;;5107712;28;20431;-59
2023/06/29 09:26:44;;;;;;;1.27;0.60;;;26.70;1.00;;;;;;5117962;27;20533;-59
2023/06/29 09:29:11;;;;;;;1.50;0.70;;;26.40;1.00;;;;;;5129935;27;20426;-60
2023/06/29 09:31:38;;;;;;;1.80;0.70;;;26.40;1.00;;;;;;5128295;27;20599;-59
2023/06/29 09:34:18;;;;;;;1.10;0.68;;;26.50;1.00;;;;;;5123287;27;20842;-58
2023/06/29 09:36:46;;;;;;;1.02;0.60;;;26.60;1.00;;;;;;5130095;27;20454;-59
2023/06/29 09:39:13;;;;;;;0.73;0.60;;;26.80;1.00;;;;;;5123088;27;20419;-59
2023/06/29 09:41:49;;;;;;;0.90;0.60;;;26.90;1.00;;;;;;5119560;27;20840;-59
2023/06/29 09:44:19;;;;;;;1.40;0.60;;;27.10;1.00;;;;;;5124328;27;20451;-58
2023/06/29 09:46:46;;;;;;;0.73;0.55;;;27.10;1.00;;;;;;5110880;27;20424;-58
2023/06/29 09:49:13;;;;;;;1.00;0.60;;;27.10;1.00;;;;;;5123728;27;20428;-58
2023/06/29 09:51:41;;;;;;;0.70;0.60;;;27.00;1.00;;;;;;5124836;27;20680;-59
2023/06/29 09:54:12;;;;;;;1.20;0.60;;;27.10;1.00;;;;;;5116627;27;20446;-59
2023/06/29 09:56:40;;;;;;;0.90;0.60;;;27.20;1.00;;;;;;5128660;27;20461;-59
2023/06/29 09:59:10;;;;;;;0.80;0.60;;;27.50;1.00;;;;;;5129564;27;20447;-60
2023/06/29 10:01:37;;;;;;;1.38;0.60;;;27.80;1.00;;;;;;5129691;27;20429;-59
2023/06/29 10:04:04;;;;;;;1.10;0.70;;;27.80;1.00;;;;;;5130394;27;20430;-60
2023/06/29 10:06:36;;;;;;;0.80;0.60;;;27.70;1.00;;;;;;5128634;27;20458;-59
2023/06/29 10:09:04;;;;;;;0.80;0.60;;;27.70;1.00;;;;;;5131332;27;20754;-59
2023/06/29 10:11:35;;;;;;;0.67;0.60;;;27.30;1.00;;;;;;5129193;27;20854;-60
2023/06/29 10:14:05;;;;;;;1.20;0.80;;;27.50;1.00;;;;;;5123662;28;20468;-59
2023/06/29 10:16:37;;;;;;;1.00;0.60;;;27.40;1.00;;;;;;5119695;28;20831;-59
2023/06/29 10:19:15;;;;;;;3.30;0.70;;;27.60;1.00;;;;;;5128209;28;20434;-60
2023/06/29 10:21:44;;;;;;;0.90;0.60;;;27.90;1.00;;;;;;5130934;28;20440;-59
2023/06/29 10:24:14;;;;;;;1.00;0.70;;;28.10;1.00;;;;;;5129734;28;20438;-57
2023/06/29 10:26:42;;;;;;;1.15;0.65;;;28.10;1.00;;;;;;5129432;28;20600;-59
2023/06/29 10:29:09;;;;;;;0.73;0.60;;;28.10;1.00;;;;;;5130035;28;20688;-58
2023/06/29 10:31:38;;;;;;;0.80;0.60;;;28.40;1.00;;;;;;5129884;28;20522;-59
2023/06/29 10:34:08;;;;;;;0.90;0.70;;;28.60;1.00;;;;;;5131674;28;20426;-61
2023/06/29 10:36:49;;;;;;;0.80;0.60;;;28.80;1.00;;;;;;5125662;28;20529;-59
2023/06/29 10:39:43;;;;;;;2.60;0.70;;;28.60;1.00;;;;;;5130125;28;20822;-59
2023/06/29 10:42:12;;;;;;;1.60;0.60;;;28.50;1.00;;;;;;5128738;28;20654;-59
2023/06/29 10:44:40;;;;;;;1.00;0.60;;;28.80;1.00;;;;;;5129322;28;20457;-61
2023/06/29 10:47:27;;;;;;;1.00;0.60;;;29.20;1.00;;;;;;5129222;28;20418;-59
2023/06/29 10:50:12;;;;;;;0.80;0.60;;;29.30;1.00;;;;;;5128126;28;20418;-62
2023/06/29 10:52:39;;;;;;;0.82;0.65;;;29.30;1.00;;;;;;5127638;28;20423;-59
2023/06/29 10:55:14;;;;;;;0.80;0.70;;;29.20;1.00;;;;;;5125625;28;20561;-59
2023/06/29 10:57:41;;;;;;;1.05;0.63;;;29.20;1.00;;;;;;5116856;28;20427;-59
2023/06/29 11:00:10;;;;;;;1.30;0.60;;;29.20;1.00;;;;;;5128050;27;20908;-59
2023/06/29 11:02:39;;;;;;;1.10;0.60;;;29.40;1.00;;;;;;5129858;28;20499;-59
2023/06/29 11:05:06;;;;;;;1.20;0.70;;;29.50;1.00;;;;;;5127060;28;20414;-62
2023/06/29 11:07:34;;;;;;;1.10;0.70;;;30.00;1.00;;;;;;5128637;28;20903;-59
2023/06/29 11:10:02;;;;;;;1.80;0.80;;;29.90;1.00;;;;;;5129495;28;20434;-59
2023/06/29 11:12:29;;;;;;;1.10;0.60;;;29.80;1.00;;;;;;5127334;28;20491;-60
2023/06/29 11:14:56;;;;;;;1.40;0.80;;;30.20;1.00;;;;;;5126260;28;20783;-60
2023/06/29 11:17:25;;;;;;;1.10;0.70;;;30.70;1.00;;;;;;5121052;28;21612;-60
2023/06/29 11:19:53;;;;;;;1.70;0.70;;;31.30;1.00;;;;;;5110962;28;20731;-59
2023/06/29 11:22:20;;;;;;;1.30;0.70;;;31.80;1.00;;;;;;5110071;28;20472;-60
2023/06/29 11:24:49;;;;;;;1.50;0.70;;;31.20;1.00;;;;;;5128592;27;20877;-59
2023/06/29 11:27:16;;;;;;;1.08;0.70;;;31.50;1.00;;;;;;5134164;27;20485;-59
2023/06/29 11:29:43;;;;;;;1.40;0.80;;;31.70;1.00;;;;;;5133189;27;20726;-60
2023/06/29 11:32:11;;;;;;;1.50;0.70;;;31.70;1.00;;;;;;5131496;27;20454;-59
2023/06/29 11:34:38;;;;;;;1.33;0.70;;;31.70;1.00;;;;;;5131202;27;20423;-60
2023/06/29 11:37:07;;;;;;;1.70;0.70;;;31.80;1.00;;;;;;5133401;27;20738;-60
2023/06/29 11:39:34;;;;;;;0.85;0.70;;;32.00;1.00;;;;;;5134542;27;20525;-60
2023/06/29 11:42:04;;;;;;;1.10;0.70;;;32.00;1.00;;;;;;5132369;27;20419;-57
2023/06/29 11:44:31;;;;;;;1.90;0.70;;;31.40;1.00;;;;;;5133387;27;20414;-59
2023/06/29 11:46:59;;;;;;;1.40;0.70;;;31.70;1.00;;;;;;5135573;27;20410;-59
2023/06/29 11:49:26;;;;;;;1.40;0.70;;;31.30;1.00;;;;;;5134676;27;20846;-59
2023/06/29 11:51:53;;;;;;;1.40;0.70;;;31.50;1.00;;;;;;5135207;27;20454;-60
2023/06/29 11:54:21;;;;;;;1.38;0.70;;;31.90;1.00;;;;;;5135618;27;20845;-59
2023/06/29 11:56:49;;;;;;;1.88;0.70;;;31.60;1.00;;;;;;5134918;27;20528;-59
2023/06/29 11:59:16;;;;;;;1.53;0.80;;;31.40;1.00;;;;;;5133925;27;20741;-59
2023/06/29 12:01:44;;;;;;;1.40;0.90;;;31.10;1.00;;;;;;5130278;27;20678;-59
2023/06/29 12:04:13;;;;;;;1.00;0.70;;;30.70;1.00;;;;;;5134621;27;20744;-59
2023/06/29 12:06:50;;;;;;;1.60;0.80;;;30.30;1.00;;;;;;5134520;27;20674;-59
2023/06/29 12:09:17;;;;;;;1.10;0.80;;;30.50;1.00;;;;;;5134863;27;20849;-58
2023/06/29 12:11:46;;;;;;;1.08;0.90;;;30.80;1.00;;;;;;5133992;27;20445;-59
2023/06/29 12:14:13;;;;;;;1.70;0.90;;;30.60;1.00;;;;;;5133638;27;20446;-59
2023/06/29 12:16:41;;;;;;;2.58;0.80;;;30.60;1.00;;;;;;5133530;27;20483;-61
2023/06/29 12:19:12;;;;;;;1.85;0.80;;;30.90;1.00;;;;;;5132985;27;20430;-59
2023/06/29 12:21:39;;;;;;;1.48;0.90;;;31.70;1.00;;;;;;5132962;27;20410;-59
2023/06/29 12:24:06;;;;;;;1.30;0.93;;;31.80;1.00;;;;;;5131499;27;20438;-58
2023/06/29 12:26:33;;;;;;;1.30;0.80;;;31.70;1.00;;;;;;5130988;27;20487;-57
2023/06/29 12:29:02;;;;;;;1.50;0.90;;;30.80;1.00;;;;;;5134149;27;20505;-58
2023/06/29 12:31:29;;;;;;;2.00;1.00;;;30.70;1.00;;;;;;5131969;27;20791;-57
2023/06/29 12:33:57;;;;;;;1.77;1.00;;;30.40;1.00;;;;;;5131947;27;20421;-58
2023/06/29 12:36:24;;;;;;;1.30;0.93;;;30.20;1.00;;;;;;5133275;27;20422;-57
2023/06/29 12:38:51;;;;;;;4.30;1.20;;;30.20;1.00;;;;;;5131688;27;20838;-58
2023/06/29 12:41:18;;;;;;;1.80;1.00;;;30.20;1.00;;;;;;5130965;27;20453;-57
2023/06/29 12:43:47;;;;;;;1.58;1.00;;;30.30;1.00;;;;;;5131533;27;20580;-58
2023/06/29 12:46:15;;;;;;;2.50;1.40;;;30.10;1.00;;;;;;5132658;27;20436;-60
2023/06/29 12:48:43;;;;;;;0.90;0.80;;;30.00;1.00;;;;;;5133554;27;20421;-59
2023/06/29 12:51:10;;;;;;;1.00;0.70;;;30.20;1.00;;;;;;5134181;27;20441;-58
2023/06/29 12:53:38;;;;;;;1.50;0.80;;;30.70;1.00;;;;;;5133080;27;20461;-58
2023/06/29 12:56:05;;;;;;;1.70;0.73;;;30.80;1.00;;;;;;5133002;27;20419;-57
2023/06/29 12:58:32;;;;;;;2.10;0.70;;;30.50;1.00;;;;;;5132287;27;20433;-58